Time;durP1;ratioP1;P1;durP2;ratioP2;P2;SDS_P1;SDS_P2;PMS_P1;PMS_P2;Temp;Humidity;BMP_temperature;BMP_pressure;BME280_temperature;BME280_humidity;BME280_pressure;Samples;Min_cycle;Max_cycle;Signal;HPM_P1;HPM_P2
2023/06/11 00:00:03;;;;;;;8.65;6.57;;;;;22.00;98457.00;;;;5070622;28;20044;-62
2023/06/11 00:02:33;;;;;;;8.45;7.47;;;;;22.00;98453.00;;;;5072557;28;20383;-61
2023/06/11 00:05:04;;;;;;;7.95;7.22;;;;;21.90;98445.00;;;;5072249;28;20076;-63
2023/06/11 00:07:30;;;;;;;9.05;7.28;;;;;21.90;98449.00;;;;5070778;28;20052;-62
2023/06/11 00:09:57;;;;;;;7.30;6.65;;;;;21.90;98454.00;;;;5072073;28;20389;-62
2023/06/11 00:12:23;;;;;;;8.02;7.28;;;;;21.80;98447.00;;;;5072350;28;20051;-62
2023/06/11 00:14:50;;;;;;;9.20;7.47;;;;;21.80;98446.00;;;;5072634;28;20036;-61
2023/06/11 00:17:17;;;;;;;7.97;7.28;;;;;21.80;98446.00;;;;5072324;28;20067;-62
2023/06/11 00:19:44;;;;;;;8.73;7.10;;;;;21.80;98444.00;;;;5071800;28;20051;-63
2023/06/11 00:22:12;;;;;;;7.50;6.85;;;;;21.80;98445.00;;;;5070597;28;20074;-62
2023/06/11 00:24:38;;;;;;;8.05;7.35;;;;;21.90;98447.00;;;;5071963;28;20053;-61
2023/06/11 00:27:06;;;;;;;7.93;7.13;;;;;21.90;98450.00;;;;5071840;28;20136;-62
2023/06/11 00:29:32;;;;;;;9.57;8.02;;;;;22.00;98448.00;;;;5074226;28;20067;-62
2023/06/11 00:31:59;;;;;;;7.72;7.03;;;;;22.00;98451.00;;;;5075966;28;20076;-61
2023/06/11 00:34:26;;;;;;;8.13;7.40;;;;;21.90;98453.00;;;;5076059;28;20425;-62
2023/06/11 00:36:53;;;;;;;9.00;7.20;;;;;21.80;98452.00;;;;5075997;28;20052;-61
2023/06/11 00:39:19;;;;;;;8.48;6.90;;;;;21.80;98454.00;;;;5075565;28;20075;-61
2023/06/11 00:41:48;;;;;;;7.32;6.63;;;;;21.70;98453.00;;;;5076350;28;20067;-63
2023/06/11 00:44:18;;;;;;;7.80;7.07;;;;;21.50;98449.00;;;;5075993;28;20053;-62
2023/06/11 00:46:45;;;;;;;8.88;8.05;;;;;21.30;98448.00;;;;5075226;28;20398;-63
2023/06/11 00:49:12;;;;;;;8.40;7.57;;;;;21.30;98440.00;;;;5074333;28;20506;-63
2023/06/11 00:51:43;;;;;;;9.43;8.25;;;;;21.20;98446.00;;;;5076122;28;20040;-63
2023/06/11 00:54:16;;;;;;;8.27;7.40;;;;;21.10;98451.00;;;;5075498;28;20460;-63
2023/06/11 00:56:43;;;;;;;9.23;7.82;;;;;21.10;98452.00;;;;5074797;28;20434;-63
2023/06/11 00:59:15;;;;;;;8.73;7.95;;;;;20.90;98450.00;;;;5076285;28;20044;-61
2023/06/11 01:01:56;;;;;;;8.80;7.93;;;;;20.90;98456.00;;;;5077876;28;20040;-62
2023/06/11 01:04:24;;;;;;;8.25;7.47;;;;;20.90;98454.00;;;;5061698;28;20520;-63
2023/06/11 01:06:57;;;;;;;8.38;7.47;;;;;21.00;98455.00;;;;5076313;28;20044;-63
2023/06/11 01:09:25;;;;;;;8.95;8.10;;;;;21.00;98446.00;;;;5059484;28;20068;-63
2023/06/11 01:11:55;;;;;;;8.25;7.45;;;;;21.00;98446.00;;;;5077939;28;20058;-63
2023/06/11 01:14:22;;;;;;;9.05;8.10;;;;;20.90;98448.00;;;;5079462;28;20132;-60
2023/06/11 01:17:02;;;;;;;8.48;7.68;;;;;20.90;98451.00;;;;5082215;28;20448;-61
2023/06/11 01:19:50;;;;;;;10.13;8.13;;;;;20.80;98455.00;;;;5077562;28;20056;-61
2023/06/11 01:22:22;;;;;;;8.75;7.95;;;;;20.80;98453.00;;;;5078133;28;20448;-62
2023/06/11 01:25:08;;;;;;;9.13;8.23;;;;;20.80;98451.00;;;;5077267;28;20040;-63
2023/06/11 01:28:10;;;;;;;8.95;8.05;;;;;20.80;98449.00;;;;5079164;28;20059;-61
2023/06/11 01:30:40;;;;;;;9.30;8.45;;;;;20.90;98447.00;;;;5080048;28;20040;-62
2023/06/11 01:33:08;;;;;;;8.73;7.90;;;;;20.90;98455.00;;;;5080615;28;20580;-61
2023/06/11 01:35:41;;;;;;;9.98;8.63;;;;;21.00;98451.00;;;;5082471;28;20048;-62
2023/06/11 01:38:08;;;;;;;8.82;8.02;;;;;21.00;98454.00;;;;5083518;28;20043;-61
2023/06/11 01:40:42;;;;;;;9.73;8.70;;;;;21.00;98456.00;;;;5082033;28;20137;-62
2023/06/11 01:43:09;;;;;;;9.68;8.68;;;;;20.90;98455.00;;;;5066677;28;20109;-60
2023/06/11 01:45:36;;;;;;;9.13;8.02;;;;;20.90;98458.00;;;;5084482;28;20048;-62
2023/06/11 01:48:04;;;;;;;9.00;8.10;;;;;20.90;98456.00;;;;5065100;28;20041;-62
2023/06/11 01:50:33;;;;;;;10.63;8.00;;;;;20.90;98451.00;;;;5063848;28;20048;-62
2023/06/11 01:53:00;;;;;;;8.90;8.10;;;;;20.80;98445.00;;;;5078805;28;20071;-62
2023/06/11 01:55:28;;;;;;;8.75;7.85;;;;;20.80;98455.00;;;;5081560;28;20049;-62
2023/06/11 01:57:55;;;;;;;8.63;7.72;;;;;20.70;98458.00;;;;5086120;28;20127;-62
2023/06/11 02:00:22;;;;;;;8.70;7.90;;;;;20.70;98453.00;;;;5088942;28;20064;-62
2023/06/11 02:02:49;;;;;;;9.10;8.20;;;;;20.60;98456.00;;;;5086125;28;20128;-62
2023/06/11 02:05:17;;;;;;;8.65;7.85;;;;;20.60;98459.00;;;;5086136;28;20048;-62
2023/06/11 02:07:45;;;;;;;9.80;8.63;;;;;20.50;98456.00;;;;5084033;28;20057;-63
2023/06/11 02:10:12;;;;;;;9.18;8.20;;;;;20.40;98453.00;;;;5080103;28;20045;-62
2023/06/11 02:12:38;;;;;;;9.93;8.68;;;;;20.30;98464.00;;;;5081298;28;20096;-63
2023/06/11 02:15:06;;;;;;;9.05;8.25;;;;;20.20;98462.00;;;;5078780;28;20087;-63
2023/06/11 02:17:33;;;;;;;9.15;8.25;;;;;20.20;98467.00;;;;5061857;28;20050;-62
2023/06/11 02:20:00;;;;;;;9.40;8.50;;;;;20.20;98454.00;;;;5077987;28;20040;-62
2023/06/11 02:22:26;;;;;;;8.60;7.82;;;;;20.10;98460.00;;;;5078794;28;20048;-63
2023/06/11 02:24:53;;;;;;;9.48;8.43;;;;;20.00;98468.00;;;;5079696;28;20041;-63
2023/06/11 02:27:20;;;;;;;9.23;8.43;;;;;20.00;98475.00;;;;5081940;28;20040;-62
2023/06/11 02:29:47;;;;;;;9.43;8.52;;;;;20.00;98467.00;;;;5082146;28;20048;-62
2023/06/11 02:32:15;;;;;;;10.93;8.98;;;;;20.10;98469.00;;;;5067569;28;20116;-61
2023/06/11 02:34:42;;;;;;;9.57;8.68;;;;;20.10;98470.00;;;;5068899;28;20048;-62
2023/06/11 02:37:08;;;;;;;9.70;8.80;;;;;20.20;98471.00;;;;5080917;28;20139;-61
2023/06/11 02:39:35;;;;;;;9.23;8.40;;;;;20.10;98467.00;;;;5077360;28;20052;-63
2023/06/11 02:42:02;;;;;;;9.70;8.60;;;;;20.00;98470.00;;;;5080034;28;20062;-62
2023/06/11 02:44:28;;;;;;;9.20;8.40;;;;;19.90;98469.00;;;;5078693;28;20086;-61
2023/06/11 02:46:55;;;;;;;8.90;8.05;;;;;19.90;98470.00;;;;5077868;28;20094;-63
2023/06/11 02:49:22;;;;;;;9.40;8.50;;;;;19.70;98471.00;;;;5077553;28;20114;-62
2023/06/11 02:51:48;;;;;;;11.38;8.27;;;;;19.80;98472.00;;;;5077027;28;20048;-63
2023/06/11 02:54:15;;;;;;;9.50;8.63;;;;;19.80;98469.00;;;;5078406;28;20071;-62
2023/06/11 02:56:42;;;;;;;11.63;8.70;;;;;19.70;98467.00;;;;5075287;28;20083;-62
2023/06/11 02:59:08;;;;;;;9.20;8.30;;;;;19.60;98463.00;;;;5076583;28;20135;-62
2023/06/11 03:01:35;;;;;;;9.57;8.73;;;;;19.70;98468.00;;;;5077419;28;20036;-63
2023/06/11 03:04:02;;;;;;;10.18;9.07;;;;;19.60;98477.00;;;;5063343;28;20048;-63
2023/06/11 03:06:32;;;;;;;8.93;8.05;;;;;19.60;98480.00;;;;5079519;28;20044;-62
2023/06/11 03:09:00;;;;;;;8.80;7.88;;;;;19.60;98478.00;;;;5079338;28;20059;-62
2023/06/11 03:11:26;;;;;;;9.50;8.60;;;;;19.50;98478.00;;;;5080161;28;20048;-62
2023/06/11 03:13:53;;;;;;;9.88;8.20;;;;;19.40;98481.00;;;;5077804;28;20048;-61
2023/06/11 03:16:20;;;;;;;8.60;7.80;;;;;19.40;98474.00;;;;5078022;28;20044;-62
2023/06/11 03:18:46;;;;;;;10.48;9.00;;;;;19.40;98475.00;;;;5077367;28;20497;-62
2023/06/11 03:21:13;;;;;;;9.57;8.68;;;;;19.50;98472.00;;;;5074476;28;20078;-61
2023/06/11 03:23:40;;;;;;;11.15;10.02;;;;;19.50;98469.00;;;;5074498;28;20501;-61
2023/06/11 03:26:07;;;;;;;11.57;9.00;;;;;19.60;98472.00;;;;5075059;28;20098;-61
2023/06/11 03:28:39;;;;;;;10.93;9.82;;;;;19.60;98468.00;;;;5060997;28;20044;-62
2023/06/11 03:31:06;;;;;;;9.70;8.68;;;;;19.60;98481.00;;;;5058477;28;20564;-61
2023/06/11 03:33:33;;;;;;;10.20;9.20;;;;;19.60;98477.00;;;;5077140;28;20044;-61
2023/06/11 03:36:00;;;;;;;9.95;8.95;;;;;19.60;98476.00;;;;5082615;28;20048;-61
2023/06/11 03:38:26;;;;;;;9.32;8.48;;;;;19.60;98473.00;;;;5085166;28;20059;-61
2023/06/11 03:40:54;;;;;;;9.65;8.60;;;;;19.70;98483.00;;;;5068539;28;20116;-61
2023/06/11 03:43:25;;;;;;;10.23;9.32;;;;;19.80;98482.00;;;;5078503;28;20104;-63
2023/06/11 03:45:51;;;;;;;9.60;8.60;;;;;19.70;98493.00;;;;5076007;28;20044;-62
2023/06/11 03:48:18;;;;;;;11.30;10.10;;;;;19.70;98488.00;;;;5072783;28;20044;-61
2023/06/11 03:50:45;;;;;;;10.70;8.80;;;;;19.80;98482.00;;;;5073176;28;20052;-61
2023/06/11 03:53:12;;;;;;;12.30;8.32;;;;;19.80;98479.00;;;;5073215;28;20036;-60
2023/06/11 03:55:39;;;;;;;8.93;8.07;;;;;19.90;98477.00;;;;5072291;28;20113;-60
2023/06/11 03:58:07;;;;;;;9.70;8.77;;;;;19.90;98489.00;;;;5072491;28;20044;-61
2023/06/11 04:00:34;;;;;;;10.50;9.20;;;;;19.90;98485.00;;;;5073138;28;20045;-60
2023/06/11 04:03:00;;;;;;;9.68;8.55;;;;;19.90;98487.00;;;;5077757;28;20135;-60
2023/06/11 04:05:37;;;;;;;9.93;9.02;;;;;20.00;98491.00;;;;5079057;28;20051;-61
2023/06/11 04:08:05;;;;;;;9.13;8.23;;;;;20.00;98486.00;;;;5064604;28;20075;-60
2023/06/11 04:10:32;;;;;;;10.27;8.73;;;;;20.00;98489.00;;;;5069089;28;20121;-60
2023/06/11 04:12:59;;;;;;;9.32;8.52;;;;;19.90;98489.00;;;;5074594;28;20048;-61
2023/06/11 04:15:26;;;;;;;9.55;8.65;;;;;19.90;98488.00;;;;5072778;28;20509;-61
2023/06/11 04:17:54;;;;;;;9.63;8.63;;;;;20.00;98488.00;;;;5072675;28;20047;-61
2023/06/11 04:20:20;;;;;;;11.57;9.48;;;;;20.00;98488.00;;;;5072081;28;20053;-60
2023/06/11 04:22:50;;;;;;;9.43;8.52;;;;;19.90;98486.00;;;;5072780;28;20044;-62
2023/06/11 04:25:17;;;;;;;11.38;9.10;;;;;19.90;98486.00;;;;5072147;28;20068;-62
2023/06/11 04:27:48;;;;;;;10.27;9.18;;;;;19.90;98491.00;;;;5072154;28;20058;-62
2023/06/11 04:30:16;;;;;;;9.77;8.88;;;;;20.10;98488.00;;;;5054582;28;20101;-62
2023/06/11 04:32:47;;;;;;;9.82;8.93;;;;;20.10;98493.00;;;;5054272;28;20141;-62
2023/06/11 04:35:14;;;;;;;8.75;7.95;;;;;20.30;98494.00;;;;5055270;28;20144;-62
2023/06/11 04:37:45;;;;;;;9.18;8.27;;;;;20.40;98506.00;;;;5071058;28;20131;-62
2023/06/11 04:40:18;;;;;;;9.85;8.80;;;;;20.50;98495.00;;;;5072746;28;20143;-62
2023/06/11 04:42:46;;;;;;;9.52;8.60;;;;;20.60;98503.00;;;;5071096;28;20048;-62
2023/06/11 04:45:13;;;;;;;9.00;8.20;;;;;20.60;98500.00;;;;5071784;28;20052;-61
2023/06/11 04:47:40;;;;;;;10.13;7.68;;;;;20.70;98495.00;;;;5072729;28;20037;-60
2023/06/11 04:50:08;;;;;;;9.20;7.88;;;;;20.80;98496.00;;;;5070412;28;20068;-61
2023/06/11 04:52:37;;;;;;;8.93;8.02;;;;;21.00;98504.00;;;;5070695;28;20041;-61
2023/06/11 04:55:09;;;;;;;8.43;7.55;;;;;21.20;98497.00;;;;5071510;28;20106;-61
2023/06/11 04:57:38;;;;;;;8.52;7.72;;;;;21.40;98504.00;;;;5056656;28;20087;-61
2023/06/11 05:00:10;;;;;;;9.13;7.47;;;;;21.60;98497.00;;;;5075476;28;20091;-61
2023/06/11 05:02:44;;;;;;;8.60;7.80;;;;;21.70;98505.00;;;;5070178;28;20131;-61
2023/06/11 05:05:12;;;;;;;10.88;8.10;;;;;21.90;98500.00;;;;5070229;28;20532;-61
2023/06/11 05:07:41;;;;;;;9.43;8.48;;;;;22.00;98504.00;;;;5071112;28;20067;-61
2023/06/11 05:10:08;;;;;;;11.15;9.90;;;;;22.10;98508.00;;;;5069855;28;20139;-61
2023/06/11 05:12:35;;;;;;;8.32;7.28;;;;;22.20;98501.00;;;;5053936;28;20067;-61
2023/06/11 05:15:02;;;;;;;9.68;7.82;;;;;22.20;98511.00;;;;5073767;28;20040;-61
2023/06/11 05:17:29;;;;;;;9.77;8.57;;;;;22.20;98506.00;;;;5073681;28;20421;-61
2023/06/11 05:19:55;;;;;;;8.77;7.40;;;;;22.30;98503.00;;;;5073347;28;20124;-61
2023/06/11 05:22:23;;;;;;;10.35;7.93;;;;;22.20;98506.00;;;;5074757;28;20435;-61
2023/06/11 05:24:49;;;;;;;7.05;6.45;;;;;22.20;98505.00;;;;5073491;28;20036;-61
2023/06/11 05:27:17;;;;;;;8.50;6.82;;;;;22.20;98514.00;;;;5074692;28;20036;-61
2023/06/11 05:29:44;;;;;;;9.80;7.20;;;;;22.20;98514.00;;;;5073255;28;20051;-61
2023/06/11 05:32:14;;;;;;;7.63;6.45;;;;;22.30;98513.00;;;;5073155;28;20151;-61
2023/06/11 05:34:43;;;;;;;7.00;6.40;;;;;22.30;98515.00;;;;5073397;28;20052;-61
2023/06/11 05:37:12;;;;;;;7.82;6.63;;;;;22.40;98514.00;;;;5072798;28;20046;-61
2023/06/11 05:39:39;;;;;;;7.03;6.43;;;;;22.40;98517.00;;;;5072966;28;20501;-61
2023/06/11 05:42:06;;;;;;;7.53;6.35;;;;;22.50;98516.00;;;;5056665;28;20036;-61
2023/06/11 05:44:33;;;;;;;6.70;6.07;;;;;22.50;98513.00;;;;5073167;28;20063;-62
2023/06/11 05:47:01;;;;;;;6.90;6.20;;;;;22.60;98516.00;;;;5073051;28;20155;-61
2023/06/11 05:49:28;;;;;;;7.63;6.88;;;;;22.70;98515.00;;;;5074104;28;20036;-61
2023/06/11 05:51:55;;;;;;;6.85;6.25;;;;;22.70;98519.00;;;;5073020;28;20048;-61
2023/06/11 05:54:22;;;;;;;8.73;6.40;;;;;22.80;98524.00;;;;5072917;28;20044;-61
2023/06/11 05:56:50;;;;;;;7.20;6.50;;;;;23.00;98519.00;;;;5073217;28;20391;-61
2023/06/11 05:59:17;;;;;;;6.82;6.22;;;;;23.20;98522.00;;;;5072788;28;20045;-61
2023/06/11 06:01:47;;;;;;;6.60;6.00;;;;;23.30;98525.00;;;;5072808;28;20044;-61
2023/06/11 06:04:17;;;;;;;6.13;5.63;;;;;23.30;98529.00;;;;5073081;28;20044;-61
2023/06/11 06:06:44;;;;;;;6.70;5.95;;;;;23.40;98529.00;;;;5072686;28;20094;-61
2023/06/11 06:09:13;;;;;;;7.78;6.00;;;;;23.40;98524.00;;;;5072550;28;20045;-61
2023/06/11 06:11:40;;;;;;;6.65;5.95;;;;;23.50;98530.00;;;;5072832;28;20045;-61
2023/06/11 06:14:06;;;;;;;10.20;6.20;;;;;23.60;98538.00;;;;5073868;28;20596;-61
2023/06/11 06:16:34;;;;;;;6.28;5.65;;;;;23.80;98540.00;;;;5072868;28;20608;-62
2023/06/11 06:19:05;;;;;;;6.47;5.88;;;;;23.80;98540.00;;;;5072348;28;20049;-61
2023/06/11 06:21:32;;;;;;;8.13;5.65;;;;;23.80;98541.00;;;;5073373;28;20114;-61
2023/06/11 06:23:58;;;;;;;7.78;5.55;;;;;23.90;98547.00;;;;5071971;28;20051;-61
2023/06/11 06:26:25;;;;;;;6.00;5.50;;;;;23.80;98547.00;;;;5073220;28;20044;-61
2023/06/11 06:28:53;;;;;;;6.68;5.00;;;;;23.90;98545.00;;;;5073437;28;20043;-61
2023/06/11 06:31:22;;;;;;;5.75;5.15;;;;;23.80;98550.00;;;;5072305;28;20141;-61
2023/06/11 06:33:51;;;;;;;6.03;5.45;;;;;24.00;98545.00;;;;5072325;28;20047;-61
2023/06/11 06:36:20;;;;;;;5.63;5.13;;;;;23.90;98545.00;;;;5071926;28;20044;-62
2023/06/11 06:38:47;;;;;;;5.70;5.10;;;;;24.00;98546.00;;;;5071964;28;20049;-63
2023/06/11 06:41:14;;;;;;;5.40;4.90;;;;;24.10;98553.00;;;;5071962;28;20143;-63
2023/06/11 06:43:43;;;;;;;5.85;5.25;;;;;24.30;98554.00;;;;5072030;28;20497;-62
2023/06/11 06:46:15;;;;;;;6.28;5.45;;;;;24.30;98544.00;;;;5056485;28;20067;-61
2023/06/11 06:48:46;;;;;;;6.50;4.90;;;;;24.40;98536.00;;;;5072108;28;20040;-60
2023/06/11 06:51:13;;;;;;;5.30;4.80;;;;;24.40;98534.00;;;;5055782;28;20041;-61
2023/06/11 06:53:43;;;;;;;5.40;4.40;;;;;24.40;98537.00;;;;5055729;28;20071;-61
2023/06/11 06:56:11;;;;;;;5.50;5.00;;;;;24.60;98541.00;;;;5071787;28;20136;-60
2023/06/11 06:58:38;;;;;;;5.95;5.32;;;;;24.70;98540.00;;;;5071649;28;20058;-62
2023/06/11 07:01:04;;;;;;;4.90;4.40;;;;;24.80;98551.00;;;;5071685;28;20048;-61
2023/06/11 07:03:33;;;;;;;5.88;5.30;;;;;24.80;98548.00;;;;5071746;28;20048;-62
2023/06/11 07:06:00;;;;;;;8.07;5.07;;;;;24.80;98550.00;;;;5071685;28;20040;-62
2023/06/11 07:08:27;;;;;;;6.60;5.85;;;;;24.90;98557.00;;;;5071583;28;20147;-61
2023/06/11 07:10:55;;;;;;;6.45;5.85;;;;;25.00;98558.00;;;;5071423;28;20135;-61
2023/06/11 07:13:30;;;;;;;6.63;4.95;;;;;25.10;98560.00;;;;5071627;28;20040;-60
2023/06/11 07:15:58;;;;;;;5.60;5.10;;;;;25.20;98561.00;;;;5055023;28;20421;-60
2023/06/11 07:18:27;;;;;;;4.88;4.43;;;;;25.20;98573.00;;;;5071362;28;20094;-61
2023/06/11 07:20:55;;;;;;;6.05;5.05;;;;;25.20;98561.00;;;;5071470;28;20044;-62
2023/06/11 07:23:21;;;;;;;5.72;5.00;;;;;25.30;98573.00;;;;5071310;28;20084;-62
2023/06/11 07:25:49;;;;;;;6.43;4.63;;;;;25.40;98572.00;;;;5054868;28;20135;-62
2023/06/11 07:28:19;;;;;;;5.95;4.90;;;;;25.40;98574.00;;;;5055061;28;20045;-61
2023/06/11 07:30:46;;;;;;;5.63;5.15;;;;;25.40;98577.00;;;;5071145;28;20045;-62
2023/06/11 07:33:15;;;;;;;4.82;4.32;;;;;25.40;98579.00;;;;5071098;28;20131;-62
2023/06/11 07:35:41;;;;;;;5.68;5.13;;;;;25.40;98578.00;;;;5054449;28;20080;-61
2023/06/11 07:38:08;;;;;;;6.40;4.43;;;;;25.50;98579.00;;;;5071566;28;20131;-60
2023/06/11 07:40:35;;;;;;;5.22;4.72;;;;;25.50;98579.00;;;;5055298;28;20041;-60
2023/06/11 07:43:02;;;;;;;4.72;4.32;;;;;25.60;98581.00;;;;5074994;28;20045;-61
2023/06/11 07:45:30;;;;;;;5.78;5.15;;;;;25.60;98567.00;;;;5077286;28;20555;-61
2023/06/11 07:47:56;;;;;;;8.00;6.78;;;;;25.60;98573.00;;;;5077113;28;20128;-60
2023/06/11 07:50:23;;;;;;;5.05;4.65;;;;;25.70;98577.00;;;;5055009;28;20041;-60
2023/06/11 07:52:50;;;;;;;4.63;4.22;;;;;25.90;98572.00;;;;5071027;28;20044;-61
2023/06/11 07:55:22;;;;;;;6.18;4.97;;;;;25.90;98578.00;;;;5071047;28;20079;-60
2023/06/11 07:57:49;;;;;;;6.05;4.88;;;;;26.00;98580.00;;;;5070982;28;20072;-61
2023/06/11 08:00:17;;;;;;;5.32;4.88;;;;;25.80;98577.00;;;;5070806;28;20080;-60
2023/06/11 08:02:46;;;;;;;5.75;5.25;;;;;25.90;98575.00;;;;5072142;28;20162;-61
2023/06/11 08:05:17;;;;;;;7.72;5.47;;;;;26.00;98572.00;;;;5071151;28;20090;-60
2023/06/11 08:07:45;;;;;;;5.20;4.78;;;;;25.90;98574.00;;;;5070552;28;20551;-64
2023/06/11 08:10:11;;;;;;;7.03;5.43;;;;;25.90;98567.00;;;;5070544;28;20098;-62
2023/06/11 08:12:39;;;;;;;5.40;4.90;;;;;25.90;98570.00;;;;5070881;28;20136;-60
2023/06/11 08:15:06;;;;;;;5.32;4.82;;;;;26.10;98579.00;;;;5071011;28;20481;-61
2023/06/11 08:17:33;;;;;;;5.15;4.65;;;;;26.00;98583.00;;;;5072054;28;20506;-60
2023/06/11 08:20:00;;;;;;;5.90;4.93;;;;;25.90;98581.00;;;;5072015;28;20040;-61
2023/06/11 08:22:27;;;;;;;5.55;5.00;;;;;26.00;98587.00;;;;5070757;28;20501;-60
2023/06/11 08:24:53;;;;;;;6.10;5.07;;;;;26.00;98576.00;;;;5071154;28;20056;-61
2023/06/11 08:27:20;;;;;;;5.93;5.03;;;;;26.10;98579.00;;;;5072318;28;20046;-62
2023/06/11 08:29:47;;;;;;;5.25;4.75;;;;;26.20;98569.00;;;;5071762;28;20087;-61
2023/06/11 08:32:13;;;;;;;5.30;4.88;;;;;26.30;98571.00;;;;5071767;28;20520;-62
2023/06/11 08:34:40;;;;;;;5.38;4.32;;;;;26.30;98568.00;;;;5072094;28;20061;-62
2023/06/11 08:37:07;;;;;;;5.93;4.80;;;;;26.30;98569.00;;;;5071774;28;20417;-61
2023/06/11 08:39:33;;;;;;;4.53;4.05;;;;;26.40;98567.00;;;;5071624;28;20041;-61
2023/06/11 08:42:00;;;;;;;4.85;4.40;;;;;26.50;98569.00;;;;5071902;28;20450;-60
2023/06/11 08:44:27;;;;;;;4.97;4.57;;;;;26.60;98570.00;;;;5072021;28;20076;-61
2023/06/11 08:46:56;;;;;;;4.85;4.45;;;;;26.50;98567.00;;;;5071871;28;20080;-61
2023/06/11 08:49:23;;;;;;;4.97;4.53;;;;;26.60;98576.00;;;;5075722;28;20136;-61
2023/06/11 08:51:50;;;;;;;5.07;4.65;;;;;26.80;98581.00;;;;5075330;28;20044;-62
2023/06/11 08:54:17;;;;;;;61.65;49.08;;;;;26.80;98579.00;;;;5075535;28;20037;-61
2023/06/11 08:56:44;;;;;;;42.20;26.90;;;;;26.80;98574.00;;;;5075546;28;20048;-60
2023/06/11 08:59:11;;;;;;;51.33;30.42;;;;;26.90;98578.00;;;;5075353;28;20595;-60
2023/06/11 09:01:39;;;;;;;33.10;24.15;;;;;26.90;98578.00;;;;5075288;28;20110;-60
2023/06/11 09:04:06;;;;;;;86.18;54.72;;;;;26.80;98569.00;;;;5075600;28;20037;-59
2023/06/11 09:06:34;;;;;;;116.20;83.25;;;;;26.80;98567.00;;;;5073873;28;20056;-60
2023/06/11 09:09:07;;;;;;;22.35;15.38;;;;;26.80;98566.00;;;;5075518;28;20568;-59
2023/06/11 09:11:38;;;;;;;70.28;40.90;;;;;27.00;98562.00;;;;5076044;28;20083;-63
2023/06/11 09:14:05;;;;;;;85.05;49.95;;;;;27.10;98565.00;;;;5074290;28;20048;-60
2023/06/11 09:16:40;;;;;;;110.20;63.53;;;;;27.30;98565.00;;;;5074106;28;20152;-60
2023/06/11 09:19:15;;;;;;;73.25;41.38;;;;;27.30;98553.00;;;;5075021;28;20067;-60
2023/06/11 09:21:55;;;;;;;44.47;25.70;;;;;27.30;98560.00;;;;5075015;28;20041;-60
2023/06/11 09:24:23;;;;;;;86.38;50.42;;;;;27.40;98560.00;;;;5074429;28;20044;-60
2023/06/11 09:26:57;;;;;;;142.60;72.10;;;;;27.50;98551.00;;;;5073084;28;20053;-60
2023/06/11 09:29:26;;;;;;;136.90;82.68;;;;;27.70;98569.00;;;;5074801;28;20115;-61
2023/06/11 09:32:03;;;;;;;135.45;91.93;;;;;27.80;98553.00;;;;5074811;28;20391;-60
2023/06/11 09:34:49;;;;;;;26.83;19.63;;;;;27.90;98557.00;;;;5074757;28;20114;-60
2023/06/11 09:37:16;;;;;;;63.72;44.33;;;;;27.70;98549.00;;;;5074753;28;20044;-60
2023/06/11 09:39:45;;;;;;;33.17;20.13;;;;;27.60;98559.00;;;;5074346;28;20053;-60
2023/06/11 09:42:26;;;;;;;145.07;76.75;;;;;27.60;98561.00;;;;5074504;28;20434;-60
2023/06/11 09:44:58;;;;;;;101.43;55.15;;;;;27.70;98576.00;;;;5074560;28;20032;-60
2023/06/11 09:47:27;;;;;;;7.40;6.40;;;;;27.80;98565.00;;;;5074473;28;20079;-60
2023/06/11 09:49:55;;;;;;;60.00;35.10;;;;;27.80;98565.00;;;;5074214;28;20062;-60
2023/06/11 09:52:22;;;;;;;58.88;33.42;;;;;27.70;98560.00;;;;5074795;28;20132;-60
2023/06/11 09:54:50;;;;;;;84.90;41.85;;;;;27.90;98563.00;;;;5074754;28;20041;-60
2023/06/11 09:57:17;;;;;;;30.35;20.13;;;;;28.10;98576.00;;;;5075087;28;20098;-61
2023/06/11 09:59:45;;;;;;;8.65;4.93;;;;;28.10;98572.00;;;;5072136;28;20131;-61
2023/06/11 10:02:14;;;;;;;8.68;6.00;;;;;28.00;98572.00;;;;5075494;28;20045;-61
2023/06/11 10:04:41;;;;;;;6.75;5.45;;;;;28.10;98578.00;;;;5074099;28;20440;-59
2023/06/11 10:07:10;;;;;;;8.45;5.32;;;;;28.20;98567.00;;;;5074256;28;20458;-59
2023/06/11 10:09:39;;;;;;;6.50;4.80;;;;;28.10;98568.00;;;;5073748;28;20055;-61
2023/06/11 10:12:06;;;;;;;7.28;5.45;;;;;28.00;98563.00;;;;5072956;28;20043;-62
2023/06/11 10:14:34;;;;;;;9.80;5.68;;;;;28.20;98572.00;;;;5073873;28;20446;-62
2023/06/11 10:17:07;;;;;;;5.65;4.47;;;;;28.30;98572.00;;;;5072635;28;20419;-60
2023/06/11 10:19:36;;;;;;;;;;;;;28.40;98574.00;;;;5074213;28;20516;-60
2023/06/11 10:22:02;;;;;;;7.75;4.32;;;;;28.40;98567.00;;;;5074373;28;20085;-59
2023/06/11 10:24:29;;;;;;;6.60;4.80;;;;;28.50;98561.00;;;;5073877;28;20058;-60
2023/06/11 10:27:13;;;;;;;5.75;5.00;;;;;28.70;98568.00;;;;5072678;28;20049;-60
2023/06/11 10:29:45;;;;;;;4.40;4.00;;;;;28.80;98567.00;;;;5072132;28;20098;-60
2023/06/11 10:32:22;;;;;;;4.32;3.70;;;;;28.80;98571.00;;;;5073700;28;20547;-60
2023/06/11 10:34:57;;;;;;;4.43;3.50;;;;;28.70;98563.00;;;;5073581;28;20040;-61
2023/06/11 10:37:37;;;;;;;6.63;4.82;;;;;28.60;98566.00;;;;5073478;28;20036;-58
2023/06/11 10:40:08;;;;;;;4.60;4.20;;;;;28.70;98565.00;;;;5073575;28;20412;-60
2023/06/11 10:42:38;;;;;;;5.45;4.03;;;;;28.70;98564.00;;;;5072113;28;20098;-59
2023/06/11 10:45:14;;;;;;;3.88;3.55;;;;;28.60;98561.00;;;;5073500;28;20037;-59
2023/06/11 10:47:48;;;;;;;5.68;4.50;;;;;28.70;98564.00;;;;5073388;28;20234;-60
2023/06/11 10:50:23;;;;;;;4.68;4.00;;;;;28.80;98569.00;;;;5073539;28;20044;-59
2023/06/11 10:52:51;;;;;;;6.07;3.65;;;;;28.80;98557.00;;;;5073621;28;20044;-59
2023/06/11 10:55:20;;;;;;;6.53;3.70;;;;;28.80;98558.00;;;;5073611;28;20448;-60
2023/06/11 10:57:51;;;;;;;5.30;3.40;;;;;28.70;98561.00;;;;5072318;28;20056;-59
2023/06/11 11:00:19;;;;;;;4.88;4.15;;;;;28.70;98561.00;;;;5073839;28;20048;-58
2023/06/11 11:02:46;;;;;;;4.65;3.63;;;;;28.90;98565.00;;;;5074021;28;20044;-60
2023/06/11 11:05:13;;;;;;;4.05;3.30;;;;;29.00;98571.00;;;;5074521;28;20048;-61
2023/06/11 11:07:44;;;;;;;3.55;3.25;;;;;28.90;98562.00;;;;5073629;28;20128;-60
2023/06/11 11:10:15;;;;;;;3.72;3.20;;;;;28.90;98554.00;;;;5072925;28;20044;-59
2023/06/11 11:12:44;;;;;;;5.57;3.72;;;;;28.80;98563.00;;;;5073596;28;20040;-61
2023/06/11 11:15:14;;;;;;;4.75;3.58;;;;;28.60;98556.00;;;;5072944;28;20467;-61
2023/06/11 11:17:42;;;;;;;3.60;3.30;;;;;28.80;98567.00;;;;5073822;28;20127;-59
2023/06/11 11:20:10;;;;;;;4.68;4.10;;;;;29.00;98561.00;;;;5071534;28;20505;-60
2023/06/11 11:22:37;;;;;;;7.78;4.18;;;;;29.00;98562.00;;;;5073026;28;20463;-60
2023/06/11 11:25:06;;;;;;;4.28;3.88;;;;;29.10;98566.00;;;;5071936;28;20040;-60
2023/06/11 11:27:34;;;;;;;3.78;3.47;;;;;29.10;98554.00;;;;5073111;28;20052;-61
2023/06/11 11:30:02;;;;;;;4.38;3.63;;;;;29.10;98560.00;;;;5071459;28;20044;-61
2023/06/11 11:32:32;;;;;;;6.93;3.92;;;;;29.30;98549.00;;;;5072822;28;20045;-62
2023/06/11 11:35:01;;;;;;;4.15;3.50;;;;;29.40;98545.00;;;;5073226;28;20581;-61
2023/06/11 11:37:30;;;;;;;5.68;3.70;;;;;29.60;98552.00;;;;5073596;28;20043;-62
2023/06/11 11:40:06;;;;;;;5.50;3.80;;;;;29.80;98544.00;;;;5071814;28;20044;-61
2023/06/11 11:42:55;;;;;;;3.38;3.08;;;;;29.80;98530.00;;;;5073314;28;20509;-61
2023/06/11 11:45:30;;;;;;;5.88;3.78;;;;;29.70;98531.00;;;;5073095;28;20409;-62
2023/06/11 11:47:56;;;;;;;4.22;3.83;;;;;29.80;98536.00;;;;5073560;28;20048;-61
2023/06/11 11:50:27;;;;;;;4.20;3.47;;;;;29.80;98539.00;;;;5072796;28;20098;-61
2023/06/11 11:53:03;;;;;;;5.82;3.58;;;;;29.70;98547.00;;;;5073982;28;20062;-61
2023/06/11 11:55:39;;;;;;;9.88;5.97;;;;;29.50;98545.00;;;;5074072;28;20047;-61
2023/06/11 11:58:22;;;;;;;12.85;7.30;;;;;29.60;98544.00;;;;5076653;28;20052;-61
2023/06/11 12:00:56;;;;;;;15.32;11.35;;;;;29.50;98528.00;;;;5074503;28;20048;-62
2023/06/11 12:03:23;;;;;;;32.03;22.50;;;;;29.40;98543.00;;;;5075179;28;20042;-60
2023/06/11 12:05:58;;;;;;;9.93;8.50;;;;;29.30;98525.00;;;;5073967;28;20382;-61
2023/06/11 12:08:27;;;;;;;10.50;7.05;;;;;29.50;98528.00;;;;5072534;28;20055;-61
2023/06/11 12:10:54;;;;;;;5.82;4.43;;;;;29.60;98527.00;;;;5072199;28;20566;-61
2023/06/11 12:13:20;;;;;;;6.60;4.05;;;;;29.50;98535.00;;;;5072141;28;20040;-61
2023/06/11 12:15:47;;;;;;;4.80;4.30;;;;;29.50;98536.00;;;;5071095;28;20516;-62
2023/06/11 12:18:14;;;;;;;6.57;3.85;;;;;29.60;98529.00;;;;5070986;28;20502;-62
2023/06/11 12:20:41;;;;;;;9.30;4.53;;;;;29.60;98521.00;;;;5070486;28;20508;-62
2023/06/11 12:23:08;;;;;;;6.88;4.22;;;;;29.80;98524.00;;;;5073322;28;20079;-62